Time;durP1;ratioP1;P1;durP2;ratioP2;P2;SDS_P1;SDS_P2;PMS_P1;PMS_P2;Temp;Humidity;BMP_temperature;BMP_pressure;BME280_temperature;BME280_humidity;BME280_pressure;Samples;Min_cycle;Max_cycle;Signal;HPM_P1;HPM_P2
2023/06/07 00:02:42;;;;;;;9.23;5.70;;;;;;;19.50;68.66;99743.16;7848415;31;39031;-79
2023/06/07 00:07:02;;;;;;;11.00;5.97;;;;;;;19.57;68.70;99750.94;7835563;31;35153;-78
2023/06/07 00:11:21;;;;;;;13.07;6.15;;;;;;;19.55;68.67;99746.88;7820889;32;39523;-78
2023/06/07 00:15:37;;;;;;;10.00;6.20;;;;;;;19.57;68.53;99741.84;7820832;32;39035;-78
2023/06/07 00:19:55;;;;;;;12.15;6.10;;;;;;;19.35;69.10;99743.75;7820668;32;37981;-78
2023/06/07 00:24:12;;;;;;;13.90;6.15;;;;;;;19.51;68.59;99750.31;7820825;32;36098;-78
2023/06/07 00:28:28;;;;;;;11.48;6.28;;;;;;;19.34;69.04;99753.16;7846600;31;39944;-78
2023/06/07 00:32:45;;;;;;;12.43;6.20;;;;;;;19.45;68.82;99742.53;7847879;31;39895;-78
2023/06/07 00:37:01;;;;;;;12.57;6.45;;;;;;;19.32;69.12;99747.16;7847940;31;38749;-78
2023/06/07 00:41:18;;;;;;;13.32;6.18;;;;;;;19.29;69.11;99734.00;7847865;31;37125;-78
2023/06/07 00:45:34;;;;;;;12.30;7.05;;;;;;;19.32;68.98;99744.41;7847993;31;39969;-78
2023/06/07 00:49:50;;;;;;;14.85;6.93;;;;;;;19.33;69.01;99740.47;7846997;31;40627;-79
2023/06/07 00:54:07;;;;;;;14.20;7.22;;;;;;;19.44;68.53;99738.97;7847886;31;38008;-79
2023/06/07 00:58:24;;;;;;;12.55;6.68;;;;;;;19.26;69.08;99740.19;7847862;31;37241;-78
2023/06/07 01:02:41;;;;;;;15.55;7.80;;;;;;;19.38;68.79;99740.28;7847837;31;39061;-79
2023/06/07 01:07:01;;;;;;;12.20;6.80;;;;;;;19.36;68.77;99742.56;7847263;31;40888;-79
2023/06/07 01:11:20;;;;;;;15.63;7.32;;;;;;;19.39;68.54;99736.38;7847472;31;38198;-79
2023/06/07 01:15:38;;;;;;;12.68;6.70;;;;;;;19.45;68.26;99729.50;7820970;31;37304;-79
2023/06/07 01:19:55;;;;;;;11.70;7.12;;;;;;;19.38;68.55;99729.22;7818901;32;39095;-78
2023/06/07 01:24:12;;;;;;;8.80;5.93;;;;;;;19.45;68.21;99724.00;7818754;32;39949;-79
2023/06/07 01:28:31;;;;;;;10.52;6.75;;;;;;;19.41;68.35;99727.78;7818701;32;37828;-78
2023/06/07 01:32:48;;;;;;;14.13;6.82;;;;;;;19.40;68.21;99724.16;7819791;32;36106;-79
2023/06/07 01:37:05;;;;;;;11.88;6.62;;;;;;;19.56;67.47;99723.59;7818728;32;39114;-77
2023/06/07 01:41:22;;;;;;;10.82;6.22;;;;;;;19.42;67.62;99721.91;7819879;32;39952;-79
2023/06/07 01:45:39;;;;;;;9.50;6.35;;;;;;;19.27;68.44;99716.94;7819631;31;38605;-77
2023/06/07 01:49:57;;;;;;;12.65;6.78;;;;;;;19.43;67.98;99719.94;7818273;32;37634;-79
2023/06/07 01:54:15;;;;;;;10.48;6.90;;;;;;;19.25;68.62;99708.97;7819476;32;39418;-79
2023/06/07 01:58:44;;;;;;;11.80;6.97;;;;;;;19.37;68.11;99715.75;7818780;32;39014;-79
2023/06/07 02:03:08;;;;;;;15.40;6.60;;;;;;;19.44;67.80;99716.84;7819274;32;37651;-79
2023/06/07 02:07:27;;;;;;;17.35;7.28;;;;;;;19.20;68.80;99711.13;7819637;31;37107;-78
2023/06/07 02:11:45;;;;;;;13.02;7.07;;;;;;;19.31;68.38;99707.62;7819403;32;39320;-79
2023/06/07 02:16:05;;;;;;;12.27;6.57;;;;;;;19.32;68.37;99714.00;7818038;31;39939;-79
2023/06/07 02:20:22;;;;;;;10.70;6.95;;;;;;;19.26;68.50;99709.78;7830734;31;37995;-79
2023/06/07 02:24:38;;;;;;;12.73;7.22;;;;;;;19.22;68.72;99708.84;7819170;32;37058;-79
2023/06/07 02:28:54;;;;;;;11.82;6.95;;;;;;;19.14;68.90;99703.03;7819133;32;39113;-78
2023/06/07 02:33:13;;;;;;;14.68;7.40;;;;;;;19.26;68.67;99709.78;7818593;32;40833;-78
2023/06/07 02:37:30;;;;;;;14.02;7.55;;;;;;;19.19;68.78;99709.50;7818861;32;37813;-79
2023/06/07 02:41:46;;;;;;;15.10;7.43;;;;;;;19.28;68.74;99707.50;7844720;31;37999;-79
2023/06/07 02:46:03;;;;;;;14.38;6.78;;;;;;;19.23;68.80;99705.75;7846210;31;39975;-79
2023/06/07 02:50:21;;;;;;;11.40;7.00;;;;;;;19.04;69.45;99717.19;7846214;31;40016;-79
2023/06/07 02:54:39;;;;;;;11.82;7.57;;;;;;;19.24;68.62;99714.84;7846140;31;36990;-79
2023/06/07 02:58:56;;;;;;;11.45;6.55;;;;;;;19.32;68.39;99714.78;7846231;31;35970;-79
2023/06/07 03:03:12;;;;;;;15.25;6.87;;;;;;;19.22;68.88;99708.84;7835267;31;39299;-78
2023/06/07 03:07:28;;;;;;;13.02;6.90;;;;;;;19.17;69.15;99707.06;7818332;32;39911;-79
2023/06/07 03:11:45;;;;;;;9.40;6.25;;;;;;;19.31;68.78;99712.34;7818155;32;37813;-78
2023/06/07 03:16:01;;;;;;;11.95;6.62;;;;;;;19.40;68.43;99712.31;7821586;32;37202;-79
2023/06/07 03:20:19;;;;;;;17.00;7.28;;;;;;;19.17;69.18;99709.03;7821459;32;39267;-78
2023/06/07 03:24:36;;;;;;;13.23;7.60;;;;;;;19.13;69.48;99717.97;7822299;31;39910;-78
2023/06/07 03:28:54;;;;;;;13.35;6.55;;;;;;;19.16;69.44;99722.00;7821433;32;37634;-79
2023/06/07 03:33:10;;;;;;;10.52;6.87;;;;;;;19.37;68.70;99718.50;7821103;32;37943;-79
2023/06/07 03:37:27;;;;;;;17.73;7.18;;;;;;;19.28;69.17;99724.06;7821345;32;39344;-79
2023/06/07 03:41:43;;;;;;;10.30;6.80;;;;;;;19.33;69.05;99723.88;7821143;31;39933;-79
2023/06/07 03:45:59;;;;;;;13.55;6.95;;;;;;;19.26;69.50;99720.84;7821197;32;38776;-78
2023/06/07 03:50:16;;;;;;;12.70;6.55;;;;;;;19.42;68.90;99721.91;7821153;32;37859;-78
2023/06/07 03:54:32;;;;;;;12.20;6.70;;;;;;;19.53;68.58;99722.34;7821024;32;40016;-79
2023/06/07 03:58:49;;;;;;;15.55;7.47;;;;;;;19.51;68.56;99717.13;7820970;31;40888;-79
2023/06/07 04:03:05;;;;;;;11.12;6.32;;;;;;;19.51;68.81;99722.66;7821545;31;38712;-79
2023/06/07 04:07:22;;;;;;;11.93;7.40;;;;;;;19.45;69.02;99721.22;7820920;32;38021;-79
2023/06/07 04:11:39;;;;;;;16.08;7.20;;;;;;;19.41;69.30;99728.56;7820865;32;39397;-79
2023/06/07 04:15:55;;;;;;;11.50;6.60;;;;;;;19.26;69.77;99726.37;7820813;32;39902;-79
2023/06/07 04:20:14;;;;;;;13.27;6.70;;;;;;;19.16;70.18;99727.53;7820682;32;38625;-78
2023/06/07 04:24:31;;;;;;;12.30;7.32;;;;;;;19.09;70.39;99738.28;7833123;31;36967;-77
2023/06/07 04:28:49;;;;;;;10.68;6.80;;;;;;;19.27;69.78;99737.09;7848275;31;39469;-79
2023/06/07 04:33:10;;;;;;;12.60;7.30;;;;;;;19.33;69.48;99738.53;7846695;31;39939;-79
2023/06/07 04:37:26;;;;;;;14.30;7.30;;;;;;;19.18;70.01;99741.00;7848062;31;37832;-78
2023/06/07 04:41:42;;;;;;;17.50;6.95;;;;;;;19.20;70.37;99738.75;7848030;31;37051;-79
2023/06/07 04:46:01;;;;;;;10.77;6.47;;;;;;;18.82;71.75;99745.84;7847832;31;40022;-79
2023/06/07 04:50:20;;;;;;;10.65;6.20;;;;;;;19.29;69.76;99747.81;7847997;31;38973;-79
2023/06/07 04:54:37;;;;;;;13.90;6.70;;;;;;;19.26;69.87;99738.22;7847683;31;37833;-79
2023/06/07 04:58:55;;;;;;;12.60;6.50;;;;;;;19.49;69.30;99741.53;7847851;31;37192;-79
2023/06/07 05:03:21;;;;;;;15.05;7.55;;;;;;;19.41;69.71;99739.63;7846577;31;39195;-79
2023/06/07 05:07:41;;;;;;;14.52;9.40;;;;;;;19.60;69.51;99730.09;7847734;31;40875;-79
2023/06/07 05:11:57;;;;;;;17.92;10.07;;;;;;;19.55;70.26;99744.94;7847577;31;37892;-79
2023/06/07 05:16:17;;;;;;;15.57;10.35;;;;;;;19.52;70.58;99746.41;7847665;31;37972;-79
2023/06/07 05:20:34;;;;;;;17.87;10.63;;;;;;;19.99;68.45;99747.44;7847628;31;39311;-79
2023/06/07 05:24:51;;;;;;;16.95;10.45;;;;;;;19.87;68.74;99754.53;7846195;31;39913;-79
2023/06/07 05:29:07;;;;;;;24.37;12.20;;;;;;;19.78;69.33;99748.25;7847278;31;37939;-78
2023/06/07 05:33:23;;;;;;;18.77;11.48;;;;;;;19.80;69.24;99747.91;7847126;31;37594;-69
2023/06/07 05:37:39;;;;;;;20.35;10.88;;;;;;;19.99;68.68;99750.22;7846778;31;39383;-69
2023/06/07 05:41:56;;;;;;;19.00;11.25;;;;;;;19.97;68.55;99756.13;7847348;31;40711;-77
2023/06/07 05:46:12;;;;;;;20.23;10.75;;;;;;;19.74;68.53;99755.59;7845902;31;37906;-78
2023/06/07 05:50:28;;;;;;;20.85;11.65;;;;;;;19.92;67.68;99750.78;7846000;31;36982;-79
2023/06/07 05:54:49;;;;;;;22.33;12.07;;;;;;;19.64;68.59;99755.94;7844312;31;40001;-78
2023/06/07 05:59:06;;;;;;;17.33;11.50;;;;;;;19.97;68.05;99758.06;7819017;31;39926;-78
2023/06/07 06:03:22;;;;;;;20.25;10.95;;;;;;;19.81;68.53;99769.69;7819699;31;37995;-77
2023/06/07 06:07:39;;;;;;;17.65;10.63;;;;;;;20.11;67.67;99764.16;7839957;31;37926;-77
2023/06/07 06:11:56;;;;;;;15.20;9.82;;;;;;;20.03;67.99;99770.56;7846865;31;39247;-77
2023/06/07 06:16:12;;;;;;;19.20;11.60;;;;;;;20.04;67.93;99769.38;7830328;31;39942;-80
2023/06/07 06:20:28;;;;;;;21.37;10.52;;;;;;;19.79;68.45;99765.66;7843543;31;37712;-80
2023/06/07 06:24:45;;;;;;;15.02;9.95;;;;;;;19.54;69.30;99764.59;7825873;31;37895;-81
2023/06/07 06:29:02;;;;;;;20.77;10.35;;;;;;;19.97;68.06;99777.41;7819157;31;39283;-78
2023/06/07 06:33:18;;;;;;;15.25;10.20;;;;;;;19.96;68.02;99770.28;7828535;31;40730;-80
2023/06/07 06:37:35;;;;;;;18.17;8.73;;;;;;;19.99;67.57;99775.13;7827508;31;37899;-80
2023/06/07 06:41:52;;;;;;;22.20;9.02;;;;;;;20.09;66.96;99774.72;7834767;31;37192;-84
2023/06/07 06:46:08;;;;;;;16.00;8.57;;;;;;;20.19;66.68;99773.53;7845585;31;39235;-83
2023/06/07 06:50:24;;;;;;;13.07;7.90;;;;;;;19.93;67.51;99776.47;7825782;31;39849;-80
2023/06/07 06:54:43;;;;;;;10.90;7.37;;;;;;;20.01;67.19;99778.38;7826181;31;38150;-77
2023/06/07 06:59:00;;;;;;;12.05;7.57;;;;;;;19.95;67.92;99780.50;7836086;31;37373;-85
2023/06/07 07:03:16;;;;;;;15.13;7.90;;;;;;;19.95;67.50;99774.97;7842119;31;39378;-77
2023/06/07 07:07:33;;;;;;;16.08;8.45;;;;;;;19.89;68.25;99779.91;7822730;31;40766;-84
2023/06/07 07:11:49;;;;;;;17.40;8.20;;;;;;;20.07;67.06;99777.84;7821383;31;37996;-85
2023/06/07 07:16:06;;;;;;;12.13;8.20;;;;;;;20.22;67.20;99790.28;7818407;32;37908;-86
2023/06/07 07:20:22;;;;;;;16.62;8.90;;;;;;;19.50;68.54;99790.16;7821523;31;39012;-86
2023/06/07 07:24:38;;;;;;;11.95;7.97;;;;;;;20.32;66.38;99782.72;7823330;31;39578;-83
2023/06/07 07:28:55;;;;;;;16.85;8.18;;;;;;;20.50;66.52;99786.16;7824498;31;38635;-71
2023/06/07 07:33:11;;;;;;;12.00;7.55;;;;;;;20.33;66.99;99790.66;7817637;32;37135;-83
2023/06/07 07:37:28;;;;;;;16.50;8.30;;;;;;;20.85;65.54;99789.44;7829386;31;39435;-83
2023/06/07 07:41:45;;;;;;;14.50;8.32;;;;;;;20.92;65.60;99786.13;7845353;31;39803;-85
2023/06/07 07:46:01;;;;;;;12.60;7.45;;;;;;;20.78;65.85;99790.03;7843823;31;38789;-82
2023/06/07 07:50:18;;;;;;;15.55;8.02;;;;;;;20.91;65.02;99785.31;7833430;31;37098;-85
2023/06/07 07:54:35;;;;;;;13.55;6.80;;;;;;;21.15;64.53;99797.63;7836402;31;40070;-83
2023/06/07 07:58:51;;;;;;;9.70;6.10;;;;;;;21.33;65.02;99793.50;7844194;31;39902;-78
2023/06/07 08:03:08;;;;;;;10.60;5.60;;;;;;;21.63;64.10;99789.72;7848302;31;38942;-81
2023/06/07 08:07:25;;;;;;;17.98;6.15;;;;;;;21.97;62.51;99794.00;7847531;31;37824;-81
2023/06/07 08:11:41;;;;;;;10.77;6.20;;;;;;;22.15;62.51;99791.78;7822833;31;39397;-81
2023/06/07 08:15:58;;;;;;;10.63;5.32;;;;;;;22.37;61.82;99795.22;7819560;32;40787;-80
2023/06/07 08:20:14;;;;;;;12.00;5.82;;;;;;;21.97;61.56;99798.75;7818184;32;37647;-80
2023/06/07 08:24:31;;;;;;;8.70;4.95;;;;;;;22.50;59.81;99794.84;7817199;32;37357;-81
2023/06/07 08:28:47;;;;;;;10.50;5.10;;;;;;;22.35;60.01;99787.25;7816446;32;39836;-81
2023/06/07 08:33:03;;;;;;;10.65;5.05;;;;;;;22.84;58.69;99794.63;7817132;32;40930;-81
2023/06/07 08:37:20;;;;;;;10.02;4.45;;;;;;;22.55;60.31;99788.25;7818358;32;37954;-81
2023/06/07 08:41:39;;;;;;;10.60;4.40;;;;;;;22.72;60.02;99794.69;7820267;32;37974;-81
2023/06/07 08:45:56;;;;;;;10.27;4.10;;;;;;;22.53;59.26;99790.56;7820650;32;41585;-80
2023/06/07 08:50:13;;;;;;;10.23;4.53;;;;;;;22.60;58.35;99787.19;7820679;32;39865;-80
2023/06/07 08:54:31;;;;;;;6.97;3.97;;;;;;;22.57;58.37;99785.13;7831614;31;38689;-80
2023/06/07 08:58:48;;;;;;;13.05;4.22;;;;;;;22.61;57.26;99789.63;7846827;31;37117;-80
2023/06/07 09:03:05;;;;;;;13.40;4.20;;;;;;;22.43;58.54;99777.19;7846664;31;40161;-80
2023/06/07 09:07:22;;;;;;;7.72;3.95;;;;;;;22.40;56.93;99775.09;7847713;31;39985;-80
2023/06/07 09:11:38;;;;;;;10.07;4.43;;;;;;;22.65;55.91;99773.84;7846857;31;38657;-80
2023/06/07 09:15:57;;;;;;;7.87;3.78;;;;;;;22.70;56.99;99775.56;7834400;31;37088;-80
2023/06/07 09:20:21;;;;;;;8.45;3.92;;;;;;;22.63;55.99;99778.16;7837848;31;38477;-81
2023/06/07 09:24:38;;;;;;;7.35;3.83;;;;;;;22.97;55.02;99781.47;7821459;31;39894;-77
2023/06/07 09:28:55;;;;;;;9.10;4.00;;;;;;;23.33;57.72;99779.66;7839058;31;37803;-80
2023/06/07 09:33:28;;;;;;;6.37;3.78;;;;;;;23.40;55.27;99783.44;7846098;31;37832;-81
2023/06/07 09:37:55;;;;;;;10.55;4.32;;;;;;;23.29;54.54;99789.88;7839235;31;39364;-82
2023/06/07 09:42:15;;;;;;;7.20;4.43;;;;;;;22.60;54.77;99789.97;7824740;31;40832;-86
2023/06/07 09:46:36;;;;;;;10.70;4.57;;;;;;;22.55;56.42;99795.78;7835199;31;37441;-84
2023/06/07 09:50:59;;;;;;;8.07;4.75;;;;;;;22.59;55.18;99780.81;7824604;31;37360;-83
2023/06/07 09:55:27;;;;;;;8.60;5.25;;;;;;;22.62;53.57;99787.66;7819656;31;39502;-86
2023/06/07 10:00:00;;;;;;;9.43;5.20;;;;;;;22.70;53.67;99797.81;7820329;31;40874;-84
2023/06/07 10:04:16;;;;;;;14.13;5.85;;;;;;;22.34;55.21;99791.22;7818579;32;37689;-85
2023/06/07 10:08:34;;;;;;;12.60;5.87;;;;;;;22.05;56.83;99789.50;7819651;32;37858;-84
2023/06/07 10:12:53;;;;;;;10.13;5.80;;;;;;;22.30;55.92;99795.81;7819486;32;39187;-84
2023/06/07 10:17:13;;;;;;;10.65;5.62;;;;;;;22.07;56.71;99792.72;7830561;31;40674;-83
2023/06/07 10:21:31;;;;;;;13.00;6.20;;;;;;;22.13;57.99;99792.12;7845594;31;38896;-82
2023/06/07 10:25:59;;;;;;;10.32;5.60;;;;;;;22.39;58.06;99793.75;7845709;31;37369;-80
2023/06/07 10:30:16;;;;;;;10.38;5.80;;;;;;;22.65;55.87;99796.06;7845553;31;39290;-82
2023/06/07 10:34:32;;;;;;;16.15;6.30;;;;;;;22.53;57.61;99781.44;7846672;31;39723;-82
2023/06/07 10:38:50;;;;;;;11.15;5.87;;;;;;;23.02;55.56;99775.62;7846273;31;37824;-83
2023/06/07 10:43:07;;;;;;;12.18;6.35;;;;;;;22.57;56.27;99785.13;7837577;31;37164;-82
2023/06/07 10:47:27;;;;;;;8.55;5.28;;;;;;;22.91;56.08;99785.69;7841616;31;39291;-83
2023/06/07 10:51:46;;;;;;;12.82;6.85;;;;;;;23.58;55.70;99785.84;7845889;31;40821;-78
2023/06/07 10:56:33;;;;;;;11.68;6.12;;;;;;;23.36;54.87;99785.31;7832482;31;37853;-82
2023/06/07 11:00:49;;;;;;;12.90;6.55;;;;;;;23.34;55.30;99781.28;7814198;32;37946;-83
2023/06/07 11:05:06;;;;;;;11.68;6.10;;;;;;;23.37;53.89;99797.22;7816881;31;39309;-83
2023/06/07 11:09:31;;;;;;;13.85;6.10;;;;;;;23.52;54.46;99776.16;7817270;32;39942;-83
2023/06/07 11:13:53;;;;;;;9.32;5.68;;;;;;;23.90;53.76;99777.47;7831393;31;37937;-84
2023/06/07 11:18:10;;;;;;;12.68;5.65;;;;;;;24.07;51.44;99773.50;7834783;31;37301;-83
2023/06/07 11:22:31;;;;;;;10.07;6.05;;;;;;;24.31;50.26;99773.22;7824747;31;39263;-83
2023/06/07 11:26:50;;;;;;;10.38;5.95;;;;;;;24.38;49.70;99780.94;7838145;31;40894;-83
2023/06/07 11:31:11;;;;;;;9.70;6.00;;;;;;;24.38;49.65;99778.94;7842430;31;37705;-83
2023/06/07 11:35:30;;;;;;;10.07;5.65;;;;;;;24.44;52.12;99775.88;7846479;31;36511;-84
2023/06/07 11:39:47;;;;;;;10.93;5.53;;;;;;;25.13;48.84;99770.50;7847939;31;39088;-83
2023/06/07 11:44:03;;;;;;;11.55;5.97;;;;;;;25.19;48.27;99771.00;7847147;31;40421;-85
2023/06/07 11:48:20;;;;;;;12.85;5.50;;;;;;;25.04;49.88;99764.34;7846090;31;38325;-85
2023/06/07 11:52:39;;;;;;;13.23;5.82;;;;;;;25.79;50.62;99753.66;7848015;31;37786;-85
2023/06/07 11:56:56;;;;;;;9.93;5.62;;;;;;;25.93;46.72;99747.50;7847764;31;39332;-85
2023/06/07 12:01:15;;;;;;;10.75;5.57;;;;;;;26.54;49.69;99749.09;7848652;31;40603;-85
2023/06/07 12:05:31;;;;;;;9.18;5.65;;;;;;;26.74;44.84;99746.19;7848670;31;37866;-85
2023/06/07 12:09:50;;;;;;;9.23;5.70;;;;;;;26.47;43.92;99737.84;7848611;31;37783;-85
2023/06/07 12:14:09;;;;;;;8.98;5.37;;;;;;;26.41;46.65;99733.78;7848591;31;39350;-84
2023/06/07 12:18:27;;;;;;;8.38;5.30;;;;;;;26.60;43.74;99730.81;7848540;31;39897;-85
2023/06/07 12:22:44;;;;;;;8.55;5.10;;;;;;;27.23;43.62;99719.06;7848411;31;37843;-86
2023/06/07 12:27:04;;;;;;;10.93;5.40;;;;;;;26.71;44.08;99721.78;7848416;31;36823;-86
2023/06/07 12:31:24;;;;;;;11.90;4.95;;;;;;;27.17;45.46;99710.22;7847896;31;39286;-86
2023/06/07 12:35:45;;;;;;;10.68;5.55;;;;;;;27.70;44.20;99701.47;7848043;31;39850;-86
2023/06/07 12:40:07;;;;;;;7.80;5.20;;;;;;;27.99;40.87;99698.84;7848166;31;37887;-86
2023/06/07 12:44:24;;;;;;;8.00;5.25;;;;;;;28.62;43.66;99693.91;7846154;31;37960;-86
2023/06/07 12:48:44;;;;;;;7.87;4.82;;;;;;;28.62;42.52;99698.72;7846694;31;39990;-86
2023/06/07 12:53:01;;;;;;;7.55;4.57;;;;;;;28.38;39.57;99695.41;7846869;31;40560;-86
2023/06/07 12:57:18;;;;;;;7.37;4.50;;;;;;;28.28;40.24;99693.38;7848104;31;37998;-86
2023/06/07 13:01:34;;;;;;;7.85;4.80;;;;;;;27.91;41.40;99700.00;7848208;31;37610;-86
2023/06/07 13:05:51;;;;;;;9.70;4.80;;;;;;;27.71;41.55;99697.44;7848147;31;40105;-86
2023/06/07 13:10:10;;;;;;;8.63;4.75;;;;;;;27.87;41.20;99696.34;7847959;31;40828;-86
2023/06/07 13:14:26;;;;;;;9.88;4.70;;;;;;;27.75;43.31;99691.06;7847812;31;38505;-86
2023/06/07 13:18:43;;;;;;;11.88;4.62;;;;;;;27.68;41.82;99695.47;7847862;31;37014;-87
2023/06/07 13:22:59;;;;;;;8.32;4.78;;;;;;;27.13;43.60;99692.59;7847765;31;39373;-87
2023/06/07 13:27:16;;;;;;;8.65;4.90;;;;;;;26.97;44.08;99693.69;7847772;31;40738;-87
2023/06/07 13:31:32;;;;;;;9.00;5.00;;;;;;;26.93;43.63;99692.03;7846271;31;38513;-87
2023/06/07 13:35:49;;;;;;;6.78;4.95;;;;;;;25.48;47.10;99700.56;7846439;31;36992;-86
2023/06/07 13:40:06;;;;;;;10.73;5.37;;;;;;;26.09;46.52;99697.84;7847580;31;39385;-86
2023/06/07 13:44:23;;;;;;;10.98;5.22;;;;;;;25.92;46.92;99698.38;7847413;31;39913;-86
2023/06/07 13:48:41;;;;;;;7.05;4.75;;;;;;;25.78;46.09;99683.03;7847340;31;39122;-86
2023/06/07 13:52:57;;;;;;;13.98;5.20;;;;;;;25.52;49.30;99688.66;7847355;31;37835;-86
2023/06/07 13:57:16;;;;;;;7.35;4.70;;;;;;;25.42;47.26;99684.50;7846762;31;40010;-86
2023/06/07 14:01:33;;;;;;;8.43;4.60;;;;;;;25.16;47.16;99683.28;7847258;31;39892;-86
2023/06/07 14:05:51;;;;;;;8.18;5.40;;;;;;;25.06;48.07;99684.72;7845933;31;38674;-86
2023/06/07 14:10:08;;;;;;;9.82;4.97;;;;;;;25.17;49.31;99682.09;7847270;31;37273;-86
2023/06/07 14:14:24;;;;;;;14.23;5.90;;;;;;;25.20;48.13;99683.31;7847212;31;39157;-86
2023/06/07 14:18:41;;;;;;;7.70;5.18;;;;;;;25.34;47.89;99678.03;7847104;31;39848;-86
2023/06/07 14:22:57;;;;;;;9.38;5.35;;;;;;;25.27;48.24;99672.34;7847135;31;38647;-87
2023/06/07 14:27:14;;;;;;;7.35;4.70;;;;;;;25.07;47.95;99666.78;7847400;31;35658;-86
2023/06/07 14:31:31;;;;;;;11.20;5.37;;;;;;;25.08;48.28;99667.63;7841092;31;180168;-86
2023/06/07 14:35:48;;;;;;;7.37;5.30;;;;;;;24.83;48.40;99672.75;7846567;31;39638;-86
2023/06/07 14:40:05;;;;;;;9.93;5.90;;;;;;;24.65;50.61;99676.03;7846937;31;38695;-86
2023/06/07 14:44:23;;;;;;;8.93;4.80;;;;;;;23.87;53.97;99684.38;7846971;31;37080;-86
2023/06/07 14:48:39;;;;;;;9.02;4.60;;;;;;;23.39;56.24;99689.22;7846605;31;40110;-86
2023/06/07 14:52:56;;;;;;;8.65;4.15;;;;;;;23.40;56.20;99668.56;7846588;31;39823;-86
2023/06/07 14:57:13;;;;;;;9.85;3.60;;;;;;;23.28;56.41;99674.25;7846431;31;38515;-86
2023/06/07 15:01:30;;;;;;;6.57;3.62;;;;;;;23.23;57.00;99676.13;7846404;31;37847;-86
2023/06/07 15:05:46;;;;;;;6.12;3.58;;;;;;;22.95;57.00;99675.38;7846390;31;39317;-86
2023/06/07 15:10:03;;;;;;;4.25;2.62;;;;;;;23.02;56.64;99686.69;7845108;31;40623;-86
2023/06/07 15:14:20;;;;;;;5.05;3.10;;;;;;;22.94;56.94;99685.69;7844755;31;37964;-86
2023/06/07 15:18:36;;;;;;;3.62;2.72;;;;;;;22.87;55.97;99691.09;7846097;31;37787;-86
2023/06/07 15:22:52;;;;;;;4.25;2.80;;;;;;;22.59;57.35;99685.56;7845795;31;39924;-86
2023/06/07 15:27:08;;;;;;;5.55;3.53;;;;;;;22.33;58.46;99684.06;7845845;31;39714;-86
2023/06/07 15:31:25;;;;;;;4.55;3.28;;;;;;;22.53;58.64;99673.09;7845233;31;38602;-87
2023/06/07 15:35:41;;;;;;;9.68;3.25;;;;;;;22.37;60.45;99679.44;7845404;31;37355;-86
2023/06/07 15:39:58;;;;;;;6.45;3.30;;;;;;;22.42;59.06;99670.84;7844339;31;39229;-86
2023/06/07 15:44:14;;;;;;;10.27;3.42;;;;;;;22.66;59.15;99675.47;7845368;31;40821;-86
2023/06/07 15:48:30;;;;;;;5.90;3.30;;;;;;;22.97;57.56;99675.81;7845129;31;38530;-86
2023/06/07 15:52:47;;;;;;;5.43;3.20;;;;;;;22.45;59.44;99678.44;7843888;31;36938;-86
2023/06/07 15:57:03;;;;;;;4.47;2.92;;;;;;;22.81;57.38;99671.06;7845067;31;39345;-87
2023/06/07 16:01:20;;;;;;;6.70;3.20;;;;;;;23.08;57.08;99673.34;7844896;31;40720;-87
2023/06/07 16:05:36;;;;;;;6.70;3.35;;;;;;;22.66;57.63;99680.19;7844689;31;37917;-86
2023/06/07 16:09:52;;;;;;;4.55;2.92;;;;;;;23.03;56.57;99671.63;7844740;31;36788;-86
2023/06/07 16:14:12;;;;;;;5.05;3.10;;;;;;;23.18;56.37;99676.41;7844477;31;39859;-86
2023/06/07 16:18:28;;;;;;;7.55;3.10;;;;;;;22.88;57.62;99676.00;7844744;31;41314;-86
2023/06/07 16:22:44;;;;;;;4.25;3.10;;;;;;;22.95;57.51;99678.97;7848371;31;37687;-86
2023/06/07 16:27:01;;;;;;;5.15;3.17;;;;;;;23.22;56.54;99674.50;7848609;31;36944;-86
2023/06/07 16:31:17;;;;;;;6.53;3.83;;;;;;;23.44;57.28;99669.47;7847195;31;39242;-86
2023/06/07 16:35:33;;;;;;;4.90;2.97;;;;;;;23.67;55.00;99666.00;7848439;31;40838;-86
2023/06/07 16:39:50;;;;;;;4.65;3.00;;;;;;;23.70;55.37;99662.47;7848502;31;37822;-86
2023/06/07 16:44:06;;;;;;;4.40;2.90;;;;;;;23.36;56.76;99662.12;7848442;31;37208;-86
2023/06/07 16:48:23;;;;;;;4.55;3.10;;;;;;;23.20;56.22;99676.06;7848348;31;40029;-85
2023/06/07 16:52:39;;;;;;;5.85;3.10;;;;;;;22.85;57.08;99660.88;7848199;31;40814;-86
2023/06/07 16:56:55;;;;;;;5.53;2.78;;;;;;;23.12;57.49;99658.37;7847942;31;38160;-86
2023/06/07 17:01:12;;;;;;;3.83;2.80;;;;;;;23.30;55.53;99660.78;7848144;31;37280;-86
2023/06/07 17:05:28;;;;;;;4.25;2.72;;;;;;;23.57;54.46;99647.91;7848276;31;40451;-86
2023/06/07 17:09:44;;;;;;;5.12;2.83;;;;;;;23.09;55.20;99647.16;7848110;31;40635;-86
2023/06/07 17:14:01;;;;;;;5.72;3.42;;;;;;;23.63;53.92;99649.25;7847933;31;37889;-86
2023/06/07 17:18:19;;;;;;;5.12;3.10;;;;;;;23.56;53.89;99655.44;7846602;31;37168;-86
2023/06/07 17:22:35;;;;;;;6.15;2.70;;;;;;;23.13;54.80;99659.16;7847917;31;39213;-86
2023/06/07 17:26:52;;;;;;;4.70;2.92;;;;;;;23.16;54.61;99659.28;7847816;31;40955;-86
2023/06/07 17:31:09;;;;;;;6.10;2.50;;;;;;;23.46;53.79;99649.63;7846766;31;38479;-86
2023/06/07 17:35:26;;;;;;;5.68;2.80;;;;;;;23.38;54.38;99654.22;7847614;31;37823;-86
2023/06/07 17:39:43;;;;;;;5.75;3.05;;;;;;;23.26;54.22;99666.25;7847578;31;39340;-86
2023/06/07 17:44:00;;;;;;;5.57;2.78;;;;;;;23.42;54.54;99655.09;7847618;31;39941;-85
2023/06/07 17:48:16;;;;;;;4.65;3.08;;;;;;;23.51;54.16;99658.50;7847532;31;37621;-86
2023/06/07 17:52:32;;;;;;;3.22;2.37;;;;;;;23.34;55.38;99659.69;7847488;31;36921;-86
2023/06/07 17:56:49;;;;;;;7.62;3.05;;;;;;;23.41;56.23;99667.41;7847480;31;39966;-86
2023/06/07 18:01:05;;;;;;;3.55;2.65;;;;;;;23.37;55.92;99675.66;7847218;31;40142;-86
2023/06/07 18:05:22;;;;;;;8.57;3.00;;;;;;;23.44;55.02;99675.03;7847162;31;38726;-86
2023/06/07 18:09:39;;;;;;;4.35;2.80;;;;;;;23.34;54.91;99681.16;7847360;31;37245;-86
2023/06/07 18:13:55;;;;;;;4.07;2.78;;;;;;;23.17;56.31;99673.97;7847239;31;39293;-86
2023/06/07 18:18:12;;;;;;;5.05;2.78;;;;;;;23.17;56.95;99677.56;7830357;31;40777;-86
2023/06/07 18:22:28;;;;;;;6.18;2.92;;;;;;;23.20;56.82;99687.97;7836560;31;37845;-86
2023/06/07 18:26:44;;;;;;;7.78;3.25;;;;;;;23.20;57.04;99690.75;7819174;31;37865;-86
2023/06/07 18:31:01;;;;;;;5.95;2.95;;;;;;;23.15;57.19;99682.69;7819271;32;39069;-86
2023/06/07 18:35:17;;;;;;;3.97;2.85;;;;;;;23.04;57.44;99679.63;7820376;31;40048;-82
2023/06/07 18:39:33;;;;;;;5.72;3.03;;;;;;;22.88;58.46;99682.34;7827885;31;38868;-84
2023/06/07 18:43:50;;;;;;;6.25;3.42;;;;;;;22.76;58.76;99690.78;7830564;31;38014;-85
2023/06/07 18:48:06;;;;;;;4.93;3.37;;;;;;;22.72;59.42;99694.66;7846787;31;39442;-85
2023/06/07 18:52:22;;;;;;;5.55;3.20;;;;;;;22.61;59.75;99695.16;7838708;31;39981;-89
2023/06/07 18:56:40;;;;;;;5.53;3.25;;;;;;;22.64;59.69;99699.19;7840702;31;38601;-89
2023/06/07 19:00:56;;;;;;;5.05;3.00;;;;;;;22.45;60.29;99706.22;7845484;31;38327;-88
2023/06/07 19:05:12;;;;;;;6.75;3.55;;;;;;;22.37;60.58;99718.31;7846176;31;39915;-87
2023/06/07 19:09:29;;;;;;;7.80;3.60;;;;;;;22.40;60.05;99716.78;7835363;31;39116;-86
2023/06/07 19:13:49;;;;;;;5.93;3.25;;;;;;;22.29;60.35;99716.47;7845994;31;38668;-85
2023/06/07 19:18:06;;;;;;;4.97;3.08;;;;;;;22.43;59.85;99711.31;7843208;31;37011;-83
2023/06/07 19:22:24;;;;;;;6.30;3.50;;;;;;;22.24;60.25;99713.91;7839943;31;38285;-81
2023/06/07 19:26:40;;;;;;;6.62;3.55;;;;;;;22.05;60.63;99729.22;7843651;31;39828;-80
2023/06/07 19:30:56;;;;;;;6.47;3.35;;;;;;;22.06;60.37;99732.81;7842765;31;38442;-81
2023/06/07 19:35:13;;;;;;;6.72;3.80;;;;;;;22.06;60.10;99736.41;7842306;31;37857;-80
2023/06/07 19:39:31;;;;;;;6.15;3.47;;;;;;;22.08;60.11;99733.28;7842180;31;39358;-80
2023/06/07 19:43:47;;;;;;;6.28;3.53;;;;;;;21.86;60.87;99738.16;7841923;31;40881;-81
2023/06/07 19:48:04;;;;;;;6.62;3.97;;;;;;;21.90;60.76;99744.66;7843749;31;38162;-80
2023/06/07 19:52:22;;;;;;;8.45;4.10;;;;;;;21.68;61.37;99734.84;7841382;31;37294;-81
2023/06/07 19:56:41;;;;;;;5.97;3.70;;;;;;;21.57;61.75;99736.47;7840620;31;39378;-81
2023/06/07 20:00:59;;;;;;;9.02;4.03;;;;;;;21.68;61.29;99737.62;7845323;31;39785;-81
2023/06/07 20:05:16;;;;;;;8.57;4.40;;;;;;;21.71;61.21;99739.72;7845397;31;36922;-80